sensor_id;sensor_type;location;lat;lon;timestamp;P1;durP1;ratioP1;P2;durP2;ratioP2
73747;SDS011;62056;52.130;5.428;2022-08-01T12:47:33;3.08;;;1.10;;
73747;SDS011;62056;52.130;5.428;2022-08-01T12:51:40;2.60;;;0.70;;
73747;SDS011;62056;52.130;5.428;2022-08-01T12:54:10;2.30;;;1.00;;
73747;SDS011;62056;52.130;5.428;2022-08-01T12:56:37;3.33;;;1.30;;
73747;SDS011;62056;52.130;5.428;2022-08-01T13:01:54;1.75;;;0.60;;
73747;SDS011;62056;52.130;5.428;2022-08-01T13:04:24;2.25;;;1.10;;
73747;SDS011;62056;52.130;5.428;2022-08-01T13:06:54;1.93;;;0.70;;
73747;SDS011;62056;52.130;5.428;2022-08-01T13:09:21;3.88;;;1.00;;
73747;SDS011;62056;52.130;5.428;2022-08-01T13:11:48;3.13;;;0.80;;
73747;SDS011;62056;52.130;5.428;2022-08-01T13:14:29;3.03;;;0.80;;
73747;SDS011;62056;52.130;5.428;2022-08-01T13:16:56;3.45;;;0.80;;
73747;SDS011;62056;52.130;5.428;2022-08-01T13:19:40;1.93;;;0.93;;
73747;SDS011;62056;52.130;5.428;2022-08-01T13:22:08;2.40;;;0.68;;
73747;SDS011;62056;52.130;5.428;2022-08-01T13:24:35;1.60;;;0.93;;
73747;SDS011;62056;52.130;5.428;2022-08-01T13:27:02;3.15;;;0.90;;
73747;SDS011;62056;52.130;5.428;2022-08-01T13:29:32;3.30;;;0.68;;
73747;SDS011;62056;52.130;5.428;2022-08-01T13:31:59;1.63;;;0.80;;
73747;SDS011;62056;52.130;5.428;2022-08-01T13:34:33;1.65;;;1.15;;
73747;SDS011;62056;52.130;5.428;2022-08-01T13:37:01;2.55;;;0.77;;
73747;SDS011;62056;52.130;5.428;2022-08-01T13:39:28;1.75;;;0.70;;
73747;SDS011;62056;52.130;5.428;2022-08-01T13:42:08;2.95;;;0.85;;
73747;SDS011;62056;52.130;5.428;2022-08-01T13:44:44;6.67;;;1.10;;
73747;SDS011;62056;52.130;5.428;2022-08-01T13:47:11;3.17;;;0.70;;
73747;SDS011;62056;52.130;5.428;2022-08-01T13:49:41;2.90;;;1.00;;
73747;SDS011;62056;52.130;5.428;2022-08-01T13:52:10;4.55;;;0.85;;
73747;SDS011;62056;52.130;5.428;2022-08-01T13:54:37;2.75;;;0.70;;
73747;SDS011;62056;52.130;5.428;2022-08-01T13:57:03;1.27;;;0.60;;
73747;SDS011;62056;52.130;5.428;2022-08-01T13:59:30;1.65;;;0.70;;
73747;SDS011;62056;52.130;5.428;2022-08-01T14:01:57;2.55;;;0.68;;
73747;SDS011;62056;52.130;5.428;2022-08-01T14:04:24;4.13;;;0.90;;
73747;SDS011;62056;52.130;5.428;2022-08-01T14:06:51;2.35;;;0.70;;
73747;SDS011;62056;52.130;5.428;2022-08-01T14:09:18;1.90;;;0.73;;
73747;SDS011;62056;52.130;5.428;2022-08-01T14:11:50;3.65;;;0.73;;
73747;SDS011;62056;52.130;5.428;2022-08-01T14:14:16;2.20;;;0.70;;
73747;SDS011;62056;52.130;5.428;2022-08-01T14:16:43;2.47;;;1.33;;
73747;SDS011;62056;52.130;5.428;2022-08-01T14:19:11;2.47;;;0.82;;
73747;SDS011;62056;52.130;5.428;2022-08-01T14:21:38;1.23;;;0.80;;
73747;SDS011;62056;52.130;5.428;2022-08-01T14:24:04;5.28;;;1.30;;
73747;SDS011;62056;52.130;5.428;2022-08-01T14:26:32;2.15;;;1.02;;
73747;SDS011;62056;52.130;5.428;2022-08-01T14:29:01;2.53;;;0.70;;
73747;SDS011;62056;52.130;5.428;2022-08-01T14:31:28;2.58;;;0.90;;
73747;SDS011;62056;52.130;5.428;2022-08-01T14:33:59;2.20;;;0.60;;
73747;SDS011;62056;52.130;5.428;2022-08-01T14:36:26;1.10;;;0.80;;
73747;SDS011;62056;52.130;5.428;2022-08-01T14:38:56;1.85;;;0.80;;
73747;SDS011;62056;52.130;5.428;2022-08-01T14:41:25;1.80;;;0.50;;
73747;SDS011;62056;52.130;5.428;2022-08-01T14:43:53;1.35;;;0.77;;
73747;SDS011;62056;52.130;5.428;2022-08-01T14:46:19;3.90;;;0.90;;
73747;SDS011;62056;52.130;5.428;2022-08-01T14:48:46;1.52;;;0.60;;
73747;SDS011;62056;52.130;5.428;2022-08-01T14:51:13;2.05;;;0.73;;
73747;SDS011;62056;52.130;5.428;2022-08-01T14:53:39;3.30;;;0.75;;
73747;SDS011;62056;52.130;5.428;2022-08-01T14:56:15;1.33;;;0.50;;
73747;SDS011;62056;52.130;5.428;2022-08-01T14:58:43;1.87;;;0.77;;
73747;SDS011;62056;52.130;5.428;2022-08-01T15:01:10;2.58;;;1.17;;
73747;SDS011;62056;52.130;5.428;2022-08-01T15:03:37;3.55;;;0.77;;
73747;SDS011;62056;52.130;5.428;2022-08-01T15:06:04;5.65;;;0.82;;
73747;SDS011;62056;52.130;5.428;2022-08-01T15:08:32;3.67;;;0.70;;
73747;SDS011;62056;52.130;5.428;2022-08-01T15:10:59;1.73;;;0.60;;
73747;SDS011;62056;52.130;5.428;2022-08-01T15:13:27;2.13;;;0.73;;
73747;SDS011;62056;52.130;5.428;2022-08-01T15:15:54;2.35;;;0.88;;
73747;SDS011;62056;52.130;5.428;2022-08-01T15:18:25;3.90;;;0.63;;
73747;SDS011;62056;52.130;5.428;2022-08-01T15:20:53;1.27;;;0.70;;
73747;SDS011;62056;52.130;5.428;2022-08-01T15:23:20;2.37;;;0.60;;
73747;SDS011;62056;52.130;5.428;2022-08-01T15:25:47;3.35;;;0.82;;
73747;SDS011;62056;52.130;5.428;2022-08-01T15:28:14;3.42;;;0.82;;
73747;SDS011;62056;52.130;5.428;2022-08-01T15:30:40;3.92;;;0.85;;
73747;SDS011;62056;52.130;5.428;2022-08-01T15:33:08;3.70;;;0.60;;
73747;SDS011;62056;52.130;5.428;2022-08-01T15:35:37;2.47;;;0.70;;
73747;SDS011;62056;52.130;5.428;2022-08-01T15:38:03;1.52;;;0.60;;
73747;SDS011;62056;52.130;5.428;2022-08-01T15:40:30;2.92;;;0.60;;
73747;SDS011;62056;52.130;5.428;2022-08-01T15:43:00;1.65;;;0.60;;
73747;SDS011;62056;52.130;5.428;2022-08-01T15:45:27;2.70;;;0.73;;
73747;SDS011;62056;52.130;5.428;2022-08-01T15:48:15;2.40;;;0.63;;
73747;SDS011;62056;52.130;5.428;2022-08-01T15:50:42;3.53;;;0.85;;
73747;SDS011;62056;52.130;5.428;2022-08-01T15:53:09;1.17;;;0.60;;
73747;SDS011;62056;52.130;5.428;2022-08-01T15:55:36;1.50;;;0.60;;
73747;SDS011;62056;52.130;5.428;2022-08-01T15:58:05;2.05;;;0.52;;
73747;SDS011;62056;52.130;5.428;2022-08-01T16:00:32;1.70;;;0.60;;
73747;SDS011;62056;52.130;5.428;2022-08-01T16:03:04;3.33;;;1.35;;
73747;SDS011;62056;52.130;5.428;2022-08-01T16:05:31;2.20;;;0.50;;
73747;SDS011;62056;52.130;5.428;2022-08-01T16:07:57;1.02;;;0.50;;
73747;SDS011;62056;52.130;5.428;2022-08-01T16:10:27;1.65;;;0.70;;
73747;SDS011;62056;52.130;5.428;2022-08-01T16:12:55;4.27;;;0.70;;
73747;SDS011;62056;52.130;5.428;2022-08-01T16:15:22;1.35;;;0.80;;
73747;SDS011;62056;52.130;5.428;2022-08-01T16:18:02;3.65;;;0.90;;
73747;SDS011;62056;52.130;5.428;2022-08-01T16:20:29;3.10;;;0.57;;
73747;SDS011;62056;52.130;5.428;2022-08-01T16:22:56;2.05;;;0.80;;
73747;SDS011;62056;52.130;5.428;2022-08-01T16:25:22;3.17;;;1.03;;
73747;SDS011;62056;52.130;5.428;2022-08-01T16:27:49;0.88;;;0.50;;
73747;SDS011;62056;52.130;5.428;2022-08-01T16:30:15;3.05;;;0.73;;
73747;SDS011;62056;52.130;5.428;2022-08-01T16:32:42;1.60;;;0.50;;
73747;SDS011;62056;52.130;5.428;2022-08-01T16:35:19;1.35;;;0.55;;
73747;SDS011;62056;52.130;5.428;2022-08-01T16:37:45;2.50;;;0.87;;
73747;SDS011;62056;52.130;5.428;2022-08-01T16:40:12;5.97;;;1.15;;
73747;SDS011;62056;52.130;5.428;2022-08-01T16:42:39;2.03;;;0.77;;
73747;SDS011;62056;52.130;5.428;2022-08-01T16:45:06;3.28;;;0.80;;
73747;SDS011;62056;52.130;5.428;2022-08-01T16:47:39;6.15;;;0.77;;
73747;SDS011;62056;52.130;5.428;2022-08-01T16:50:06;1.57;;;0.70;;
73747;SDS011;62056;52.130;5.428;2022-08-01T16:52:34;3.22;;;0.70;;
73747;SDS011;62056;52.130;5.428;2022-08-01T16:55:09;2.45;;;0.70;;
73747;SDS011;62056;52.130;5.428;2022-08-01T16:57:38;2.80;;;0.50;;
73747;SDS011;62056;52.130;5.428;2022-08-01T17:00:06;1.83;;;0.57;;
73747;SDS011;62056;52.130;5.428;2022-08-01T17:02:46;2.70;;;0.60;;
73747;SDS011;62056;52.130;5.428;2022-08-01T17:05:13;3.25;;;0.70;;
73747;SDS011;62056;52.130;5.428;2022-08-01T17:07:40;3.47;;;0.82;;
73747;SDS011;62056;52.130;5.428;2022-08-01T17:10:06;2.38;;;1.00;;
73747;SDS011;62056;52.130;5.428;2022-08-01T17:12:33;3.28;;;1.00;;
73747;SDS011;62056;52.130;5.428;2022-08-01T17:15:05;2.23;;;0.60;;
73747;SDS011;62056;52.130;5.428;2022-08-01T17:17:32;3.25;;;0.70;;
73747;SDS011;62056;52.130;5.428;2022-08-01T17:19:59;1.70;;;0.80;;
73747;SDS011;62056;52.130;5.428;2022-08-01T17:22:29;1.58;;;0.70;;
73747;SDS011;62056;52.130;5.428;2022-08-01T17:24:55;1.33;;;0.70;;
73747;SDS011;62056;52.130;5.428;2022-08-01T17:27:22;5.33;;;0.80;;
73747;SDS011;62056;52.130;5.428;2022-08-01T17:29:48;2.58;;;0.90;;
73747;SDS011;62056;52.130;5.428;2022-08-01T17:32:15;3.15;;;0.60;;
73747;SDS011;62056;52.130;5.428;2022-08-01T17:34:41;2.25;;;0.93;;
73747;SDS011;62056;52.130;5.428;2022-08-01T17:37:08;4.75;;;0.82;;
73747;SDS011;62056;52.130;5.428;2022-08-01T17:39:35;3.87;;;0.73;;
73747;SDS011;62056;52.130;5.428;2022-08-01T17:42:05;2.45;;;0.73;;
73747;SDS011;62056;52.130;5.428;2022-08-01T17:44:33;1.88;;;0.75;;
73747;SDS011;62056;52.130;5.428;2022-08-01T17:47:00;1.45;;;0.47;;
73747;SDS011;62056;52.130;5.428;2022-08-01T17:49:26;2.75;;;0.65;;
73747;SDS011;62056;52.130;5.428;2022-08-01T17:52:13;3.33;;;0.80;;
73747;SDS011;62056;52.130;5.428;2022-08-01T17:54:40;3.42;;;0.90;;
73747;SDS011;62056;52.130;5.428;2022-08-01T17:57:06;1.80;;;0.60;;
73747;SDS011;62056;52.130;5.428;2022-08-01T17:59:34;2.00;;;0.60;;
73747;SDS011;62056;52.130;5.428;2022-08-01T18:02:01;5.82;;;0.45;;
73747;SDS011;62056;52.130;5.428;2022-08-01T18:04:29;1.33;;;0.50;;
73747;SDS011;62056;52.130;5.428;2022-08-01T18:06:59;2.45;;;0.73;;
73747;SDS011;62056;52.130;5.428;2022-08-01T18:09:26;2.22;;;0.70;;
73747;SDS011;62056;52.130;5.428;2022-08-01T18:11:58;2.40;;;0.65;;
73747;SDS011;62056;52.130;5.428;2022-08-01T18:14:30;5.13;;;0.70;;
73747;SDS011;62056;52.130;5.428;2022-08-01T18:17:06;2.80;;;0.87;;
73747;SDS011;62056;52.130;5.428;2022-08-01T18:19:36;2.83;;;0.60;;
73747;SDS011;62056;52.130;5.428;2022-08-01T18:22:03;2.03;;;0.75;;
73747;SDS011;62056;52.130;5.428;2022-08-01T18:24:30;5.00;;;0.65;;
73747;SDS011;62056;52.130;5.428;2022-08-01T18:26:57;2.50;;;0.50;;
73747;SDS011;62056;52.130;5.428;2022-08-01T18:29:24;4.03;;;0.70;;
73747;SDS011;62056;52.130;5.428;2022-08-01T18:32:11;3.47;;;0.60;;
73747;SDS011;62056;52.130;5.428;2022-08-01T18:34:38;1.30;;;0.77;;
73747;SDS011;62056;52.130;5.428;2022-08-01T18:37:06;2.15;;;1.08;;
73747;SDS011;62056;52.130;5.428;2022-08-01T18:39:34;6.22;;;0.98;;
73747;SDS011;62056;52.130;5.428;2022-08-01T18:42:04;2.33;;;0.60;;
73747;SDS011;62056;52.130;5.428;2022-08-01T18:44:31;4.40;;;0.60;;
73747;SDS011;62056;52.130;5.428;2022-08-01T18:46:58;2.20;;;0.70;;
73747;SDS011;62056;52.130;5.428;2022-08-01T18:49:24;2.55;;;0.77;;
73747;SDS011;62056;52.130;5.428;2022-08-01T18:51:51;1.40;;;0.50;;
73747;SDS011;62056;52.130;5.428;2022-08-01T18:54:23;3.50;;;0.70;;
73747;SDS011;62056;52.130;5.428;2022-08-01T18:56:52;4.05;;;0.88;;
73747;SDS011;62056;52.130;5.428;2022-08-01T18:59:20;2.67;;;0.70;;
73747;SDS011;62056;52.130;5.428;2022-08-01T19:01:46;2.78;;;0.90;;
73747;SDS011;62056;52.130;5.428;2022-08-01T19:04:13;3.72;;;0.77;;
73747;SDS011;62056;52.130;5.428;2022-08-01T19:06:40;4.80;;;0.57;;
73747;SDS011;62056;52.130;5.428;2022-08-01T19:09:07;2.05;;;0.95;;
73747;SDS011;62056;52.130;5.428;2022-08-01T19:11:37;4.65;;;0.80;;
73747;SDS011;62056;52.130;5.428;2022-08-01T19:14:04;6.90;;;0.95;;
73747;SDS011;62056;52.130;5.428;2022-08-01T19:16:33;2.22;;;0.90;;
73747;SDS011;62056;52.130;5.428;2022-08-01T19:19:07;3.83;;;1.87;;
73747;SDS011;62056;52.130;5.428;2022-08-01T19:21:35;2.88;;;0.98;;
73747;SDS011;62056;52.130;5.428;2022-08-01T19:24:09;7.03;;;1.05;;
73747;SDS011;62056;52.130;5.428;2022-08-01T19:26:55;3.38;;;1.02;;
73747;SDS011;62056;52.130;5.428;2022-08-01T19:29:36;2.28;;;0.80;;
73747;SDS011;62056;52.130;5.428;2022-08-01T19:32:05;7.80;;;0.70;;
73747;SDS011;62056;52.130;5.428;2022-08-01T19:34:35;2.53;;;0.80;;
73747;SDS011;62056;52.130;5.428;2022-08-01T19:37:24;3.92;;;1.20;;
73747;SDS011;62056;52.130;5.428;2022-08-01T19:39:52;5.75;;;1.00;;
73747;SDS011;62056;52.130;5.428;2022-08-01T19:42:20;4.00;;;0.80;;
73747;SDS011;62056;52.130;5.428;2022-08-01T19:44:52;4.10;;;0.80;;
73747;SDS011;62056;52.130;5.428;2022-08-01T19:47:19;3.38;;;0.75;;
73747;SDS011;62056;52.130;5.428;2022-08-01T19:49:47;4.03;;;0.70;;
73747;SDS011;62056;52.130;5.428;2022-08-01T19:52:14;2.83;;;0.85;;
73747;SDS011;62056;52.130;5.428;2022-08-01T19:54:44;3.50;;;1.05;;
73747;SDS011;62056;52.130;5.428;2022-08-01T19:57:13;5.27;;;0.93;;
73747;SDS011;62056;52.130;5.428;2022-08-01T19:59:41;3.13;;;0.95;;
73747;SDS011;62056;52.130;5.428;2022-08-01T20:02:13;3.28;;;1.00;;
73747;SDS011;62056;52.130;5.428;2022-08-01T20:04:45;4.25;;;1.25;;
73747;SDS011;62056;52.130;5.428;2022-08-01T20:07:16;2.53;;;1.00;;
73747;SDS011;62056;52.130;5.428;2022-08-01T20:09:44;3.20;;;0.90;;
73747;SDS011;62056;52.130;5.428;2022-08-01T20:12:13;4.97;;;1.05;;
73747;SDS011;62056;52.130;5.428;2022-08-01T20:14:40;3.22;;;1.60;;
73747;SDS011;62056;52.130;5.428;2022-08-01T20:17:08;4.20;;;0.93;;
73747;SDS011;62056;52.130;5.428;2022-08-01T20:19:35;3.35;;;1.00;;
73747;SDS011;62056;52.130;5.428;2022-08-01T20:22:03;3.53;;;1.30;;
73747;SDS011;62056;52.130;5.428;2022-08-01T20:24:36;5.82;;;1.20;;
73747;SDS011;62056;52.130;5.428;2022-08-01T20:27:08;3.30;;;1.17;;
73747;SDS011;62056;52.130;5.428;2022-08-01T20:29:37;2.70;;;0.98;;
73747;SDS011;62056;52.130;5.428;2022-08-01T20:32:04;3.58;;;1.00;;
73747;SDS011;62056;52.130;5.428;2022-08-01T20:34:32;2.43;;;1.00;;
73747;SDS011;62056;52.130;5.428;2022-08-01T20:37:02;4.65;;;1.13;;
73747;SDS011;62056;52.130;5.428;2022-08-01T20:39:32;2.58;;;0.90;;
73747;SDS011;62056;52.130;5.428;2022-08-01T20:42:01;2.50;;;0.90;;
73747;SDS011;62056;52.130;5.428;2022-08-01T20:44:29;4.55;;;0.88;;
73747;SDS011;62056;52.130;5.428;2022-08-01T20:47:00;3.30;;;0.97;;
73747;SDS011;62056;52.130;5.428;2022-08-01T20:49:28;2.42;;;1.05;;
73747;SDS011;62056;52.130;5.428;2022-08-01T20:51:55;3.20;;;2.38;;
73747;SDS011;62056;52.130;5.428;2022-08-01T20:54:22;4.45;;;1.15;;
73747;SDS011;62056;52.130;5.428;2022-08-01T20:59:33;2.17;;;1.10;;
73747;SDS011;62056;52.130;5.428;2022-08-01T21:05:21;2.92;;;2.35;;
73747;SDS011;62056;52.130;5.428;2022-08-01T21:07:52;3.15;;;1.10;;
73747;SDS011;62056;52.130;5.428;2022-08-01T21:10:28;5.22;;;3.75;;
73747;SDS011;62056;52.130;5.428;2022-08-01T21:12:59;4.03;;;1.30;;
73747;SDS011;62056;52.130;5.428;2022-08-01T21:15:32;8.38;;;1.15;;
73747;SDS011;62056;52.130;5.428;2022-08-01T21:18:03;4.00;;;1.38;;
73747;SDS011;62056;52.130;5.428;2022-08-01T21:20:37;4.05;;;1.33;;
73747;SDS011;62056;52.130;5.428;2022-08-01T21:25:57;3.20;;;0.90;;
73747;SDS011;62056;52.130;5.428;2022-08-01T21:28:30;5.90;;;1.30;;
73747;SDS011;62056;52.130;5.428;2022-08-01T21:31:00;1.65;;;0.90;;
73747;SDS011;62056;52.130;5.428;2022-08-01T21:33:33;3.47;;;1.20;;
73747;SDS011;62056;52.130;5.428;2022-08-01T21:36:22;2.40;;;1.60;;
73747;SDS011;62056;52.130;5.428;2022-08-01T21:38:55;3.77;;;1.57;;
73747;SDS011;62056;52.130;5.428;2022-08-01T21:41:27;4.97;;;1.63;;
73747;SDS011;62056;52.130;5.428;2022-08-01T21:44:16;3.50;;;1.50;;
73747;SDS011;62056;52.130;5.428;2022-08-01T21:46:43;4.75;;;1.40;;
73747;SDS011;62056;52.130;5.428;2022-08-01T21:49:13;2.65;;;1.58;;
73747;SDS011;62056;52.130;5.428;2022-08-01T21:51:41;3.87;;;1.57;;
73747;SDS011;62056;52.130;5.428;2022-08-01T21:57:24;2.88;;;1.00;;
73747;SDS011;62056;52.130;5.428;2022-08-01T22:00:03;2.40;;;0.85;;
73747;SDS011;62056;52.130;5.428;2022-08-01T22:05:29;2.70;;;0.73;;
73747;SDS011;62056;52.130;5.428;2022-08-01T22:08:20;1.55;;;0.80;;
73747;SDS011;62056;52.130;5.428;2022-08-01T22:10:59;3.15;;;1.23;;
73747;SDS011;62056;52.130;5.428;2022-08-01T22:13:29;3.60;;;1.00;;
73747;SDS011;62056;52.130;5.428;2022-08-01T22:15:56;1.63;;;1.17;;
73747;SDS011;62056;52.130;5.428;2022-08-01T22:18:24;3.87;;;1.33;;
73747;SDS011;62056;52.130;5.428;2022-08-01T22:20:52;3.83;;;1.25;;
73747;SDS011;62056;52.130;5.428;2022-08-01T22:23:20;2.85;;;1.08;;
73747;SDS011;62056;52.130;5.428;2022-08-01T22:25:52;2.35;;;1.00;;
73747;SDS011;62056;52.130;5.428;2022-08-01T22:28:20;4.13;;;1.20;;
73747;SDS011;62056;52.130;5.428;2022-08-01T22:30:48;2.03;;;0.97;;
73747;SDS011;62056;52.130;5.428;2022-08-01T22:33:17;3.53;;;1.00;;
73747;SDS011;62056;52.130;5.428;2022-08-01T22:35:45;3.67;;;1.10;;
73747;SDS011;62056;52.130;5.428;2022-08-01T22:38:15;12.65;;;1.63;;
73747;SDS011;62056;52.130;5.428;2022-08-01T22:40:46;3.75;;;1.15;;
73747;SDS011;62056;52.130;5.428;2022-08-01T22:43:18;2.17;;;0.90;;
73747;SDS011;62056;52.130;5.428;2022-08-01T22:45:55;2.58;;;0.82;;
73747;SDS011;62056;52.130;5.428;2022-08-01T22:49:14;6.00;;;1.20;;
73747;SDS011;62056;52.130;5.428;2022-08-01T22:54:21;1.80;;;0.80;;
73747;SDS011;62056;52.130;5.428;2022-08-01T22:57:00;2.30;;;1.50;;
73747;SDS011;62056;52.130;5.428;2022-08-01T22:59:40;3.63;;;1.30;;
73747;SDS011;62056;52.130;5.428;2022-08-01T23:02:15;4.05;;;1.30;;
73747;SDS011;62056;52.130;5.428;2022-08-01T23:04:46;2.58;;;1.20;;
73747;SDS011;62056;52.130;5.428;2022-08-01T23:07:17;2.90;;;1.30;;
73747;SDS011;62056;52.130;5.428;2022-08-01T23:09:46;4.23;;;1.43;;
73747;SDS011;62056;52.130;5.428;2022-08-01T23:12:22;3.08;;;1.20;;
73747;SDS011;62056;52.130;5.428;2022-08-01T23:14:54;6.82;;;1.58;;
73747;SDS011;62056;52.130;5.428;2022-08-01T23:17:26;2.25;;;1.48;;
73747;SDS011;62056;52.130;5.428;2022-08-01T23:19:56;4.35;;;1.38;;
73747;SDS011;62056;52.130;5.428;2022-08-01T23:22:28;2.10;;;1.50;;
73747;SDS011;62056;52.130;5.428;2022-08-01T23:24:58;3.55;;;3.25;;
73747;SDS011;62056;52.130;5.428;2022-08-01T23:27:31;2.58;;;2.00;;
73747;SDS011;62056;52.130;5.428;2022-08-01T23:30:23;4.85;;;1.65;;
73747;SDS011;62056;52.130;5.428;2022-08-01T23:32:54;2.75;;;1.70;;
73747;SDS011;62056;52.130;5.428;2022-08-01T23:35:21;4.33;;;1.70;;
73747;SDS011;62056;52.130;5.428;2022-08-01T23:37:49;2.72;;;1.75;;
73747;SDS011;62056;52.130;5.428;2022-08-01T23:40:17;10.38;;;1.80;;
73747;SDS011;62056;52.130;5.428;2022-08-01T23:42:44;4.25;;;1.85;;
73747;SDS011;62056;52.130;5.428;2022-08-01T23:45:11;2.45;;;1.52;;
73747;SDS011;62056;52.130;5.428;2022-08-01T23:47:37;2.60;;;1.93;;
73747;SDS011;62056;52.130;5.428;2022-08-01T23:50:04;6.15;;;2.45;;
73747;SDS011;62056;52.130;5.428;2022-08-01T23:52:33;6.28;;;2.08;;
73747;SDS011;62056;52.130;5.428;2022-08-01T23:55:13;6.05;;;2.80;;
73747;SDS011;62056;52.130;5.428;2022-08-01T23:57:40;5.13;;;2.53;;
